Аэропорт: Могилёв. Могилёв

ICAO: UMOO

METAR:
2019/01/21 13:00
UMOO 211300Z 27006MPS CAVOK M04/M08 Q1014 R31/750817 NOSIG
METAR:
2016/01/23 06:00
TAF UMOO 230500Z 2306/2315 28005MPS 4000 -SN BR OVC008 
      TEMPO 2306/2315 1200 SN BR BKN005